Time;durP1;ratioP1;P1;durP2;ratioP2;P2;SDS_P1;SDS_P2;PMS_P1;PMS_P2;Temp;Humidity;BMP_temperature;BMP_pressure;BME280_temperature;BME280_humidity;BME280_pressure;Samples;Min_cycle;Max_cycle;Signal;HPM_P1;HPM_P2
2023/04/29 00:02:00;;;;;;;0.60;0.60;;;;;;;10.31;95.59;96958.88;5025076;28;20045;-70
2023/04/29 00:04:27;;;;;;;0.20;0.20;;;;;;;10.33;95.37;96964.84;5033440;28;20395;-70
2023/04/29 00:06:55;;;;;;;0.50;0.50;;;;;;;10.30;95.66;96959.91;5027218;28;20080;-70
2023/04/29 00:09:23;;;;;;;0.55;0.55;;;;;;;10.28;95.90;96954.78;5025282;28;20042;-69
2023/04/29 00:11:50;;;;;;;0.55;0.55;;;;;;;10.28;95.77;96948.63;5030566;28;20091;-70
2023/04/29 00:14:18;;;;;;;0.60;0.60;;;;;;;10.29;95.83;96953.75;5028045;28;20104;-70
2023/04/29 00:16:47;;;;;;;0.68;0.68;;;;;;;10.32;95.84;96938.38;5033275;28;20345;-69
2023/04/29 00:19:14;;;;;;;0.50;0.50;;;;;;;10.32;95.70;96938.38;5024389;28;20088;-69
2023/04/29 00:21:42;;;;;;;0.57;0.57;;;;;;;10.34;96.17;96939.00;5035113;28;20072;-69
2023/04/29 00:24:09;;;;;;;0.85;0.85;;;;;;;10.32;96.11;96933.03;5034705;28;20042;-70
2023/04/29 00:26:37;;;;;;;0.60;0.60;;;;;;;10.28;96.47;96935.28;5024979;28;20049;-70
2023/04/29 00:29:04;;;;;;;0.50;0.50;;;;;;;10.31;96.39;96940.22;5031163;28;20080;-70
2023/04/29 00:31:32;;;;;;;0.68;0.68;;;;;;;10.34;96.41;96934.47;5025974;28;20115;-70
2023/04/29 00:34:01;;;;;;;0.60;0.60;;;;;;;10.36;96.65;96935.09;5025064;28;20042;-69
2023/04/29 00:36:30;;;;;;;0.70;0.70;;;;;;;10.40;96.46;96946.16;5028554;28;20076;-69
2023/04/29 00:38:58;;;;;;;0.55;0.55;;;;;;;10.43;96.07;96943.06;5035208;28;20034;-70
2023/04/29 00:41:26;;;;;;;0.50;0.50;;;;;;;10.41;96.36;96940.59;5026192;28;20131;-70
2023/04/29 00:43:53;;;;;;;0.73;0.73;;;;;;;10.46;96.29;96948.00;5034996;28;20042;-70
2023/04/29 00:46:21;;;;;;;0.57;0.57;;;;;;;10.49;96.40;96935.03;5027554;28;20079;-69
2023/04/29 00:48:49;;;;;;;0.70;0.70;;;;;;;10.48;96.40;96943.28;5035657;28;20037;-69
2023/04/29 00:51:18;;;;;;;0.57;0.57;;;;;;;10.46;96.63;96938.16;5028557;28;20061;-69
2023/04/29 00:53:45;;;;;;;0.60;0.60;;;;;;;10.44;96.76;96934.03;5013368;28;20076;-70
2023/04/29 00:56:16;;;;;;;0.65;0.65;;;;;;;10.42;96.61;96942.25;5030038;28;20057;-70
2023/04/29 00:58:48;;;;;;;0.50;0.50;;;;;;;10.41;96.56;96951.28;5036277;28;20049;-70
2023/04/29 01:01:16;;;;;;;0.65;0.65;;;;;;;10.41;97.09;96951.28;5023759;28;20057;-70
2023/04/29 01:03:44;;;;;;;0.75;0.75;;;;;;;10.36;96.82;96959.09;5031883;28;20128;-70
2023/04/29 01:06:24;;;;;;;0.68;0.68;;;;;;;10.40;97.35;96968.31;5040599;28;20056;-69
2023/04/29 01:09:03;;;;;;;0.73;0.73;;;;;;;10.44;97.27;96969.53;5038649;28;20040;-70
2023/04/29 01:11:36;;;;;;;0.60;0.60;;;;;;;10.45;97.45;96965.84;5033393;28;20049;-69
2023/04/29 01:14:04;;;;;;;0.50;0.50;;;;;;;10.53;96.98;96965.59;5031102;28;20049;-70
2023/04/29 01:16:37;;;;;;;0.65;0.65;;;;;;;10.59;96.73;96962.09;5031652;28;20048;-70
2023/04/29 01:19:17;;;;;;;0.95;0.95;;;;;;;10.66;96.44;96968.25;5032962;28;20148;-70
2023/04/29 01:21:48;;;;;;;0.57;0.57;;;;;;;10.69;95.95;96969.69;5029261;28;20041;-69
2023/04/29 01:24:17;;;;;;;0.88;0.88;;;;;;;10.65;96.36;96958.59;5025064;28;20045;-70
2023/04/29 01:26:52;;;;;;;0.93;0.93;;;;;;;10.64;96.55;96948.13;5023283;28;20041;-70
2023/04/29 01:29:43;;;;;;;0.65;0.65;;;;;;;10.69;96.54;96964.34;5029973;28;20041;-70
2023/04/29 01:32:15;;;;;;;0.70;0.70;;;;;;;10.58;96.73;96965.81;5031134;28;20128;-70
2023/04/29 01:34:47;;;;;;;0.75;0.75;;;;;;;10.55;97.48;96968.06;5023115;28;20519;-70
2023/04/29 01:37:18;;;;;;;0.77;0.77;;;;;;;10.66;96.54;96960.25;5030175;28;20050;-70
2023/04/29 01:39:57;;;;;;;0.75;0.75;;;;;;;10.59;97.17;96966.59;5034358;28;20041;-70
2023/04/29 01:42:32;;;;;;;0.70;0.70;;;;;;;10.62;96.85;96964.34;5031571;28;20144;-70
2023/04/29 01:45:06;;;;;;;0.63;0.63;;;;;;;10.62;97.04;96972.34;5033105;28;20045;-70
2023/04/29 01:47:36;;;;;;;0.43;0.43;;;;;;;10.58;97.11;96971.16;5041663;28;20041;-70
2023/04/29 01:50:05;;;;;;;0.10;0.10;;;;;;;10.56;97.50;96969.72;5039523;28;20705;-70
2023/04/29 01:52:32;;;;;;;0.50;0.50;;;;;;;10.53;97.56;96962.13;5027879;28;20072;-70
2023/04/29 01:55:02;;;;;;;0.52;0.52;;;;;;;10.51;97.45;96964.19;5032317;28;20045;-69
2023/04/29 01:57:39;;;;;;;0.63;0.63;;;;;;;10.54;97.54;96969.09;5029647;28;20048;-69
2023/04/29 02:00:19;;;;;;;0.85;0.85;;;;;;;10.53;97.70;96960.28;5034877;28;20056;-70
2023/04/29 02:02:50;;;;;;;0.50;0.50;;;;;;;10.53;97.63;96962.13;5031778;28;20123;-70
2023/04/29 02:05:31;;;;;;;0.65;0.65;;;;;;;10.59;97.74;96961.28;5039297;28;20072;-70
2023/04/29 02:07:58;;;;;;;0.57;0.57;;;;;;;10.58;97.94;96957.81;5089734;22;20041;-72
2023/04/29 02:10:28;;;;;;;0.60;0.60;;;;;;;10.59;97.94;96963.94;5067769;28;20098;-72
2023/04/29 02:13:12;;;;;;;0.68;0.68;;;;;;;10.59;97.74;96970.09;5067995;28;20041;-72
2023/04/29 02:15:41;;;;;;;0.65;0.65;;;;;;;10.64;97.82;96967.63;5060955;28;20146;-72
2023/04/29 02:18:08;;;;;;;0.52;0.52;;;;;;;10.64;97.70;96966.81;5065053;28;20052;-72
2023/04/29 02:20:36;;;;;;;0.70;0.70;;;;;;;10.66;97.97;96973.59;5067995;28;20041;-72
2023/04/29 02:23:05;;;;;;;0.70;0.70;;;;;;;10.66;97.89;96978.91;5050087;28;20049;-72
2023/04/29 02:25:34;;;;;;;0.50;0.50;;;;;;;10.66;98.07;96976.25;5042867;28;20120;-72
2023/04/29 02:28:01;;;;;;;0.40;0.40;;;;;;;10.66;97.73;96975.44;5062613;28;20242;-72
2023/04/29 02:30:29;;;;;;;0.52;0.52;;;;;;;10.68;97.68;96980.56;5046209;28;20036;-72
2023/04/29 02:32:57;;;;;;;0.50;0.50;;;;;;;10.70;97.79;96978.47;5051223;28;20508;-72
2023/04/29 02:35:24;;;;;;;0.60;0.60;;;;;;;10.72;97.65;96982.59;5043927;28;20141;-73
2023/04/29 02:37:54;;;;;;;0.88;0.88;;;;;;;10.70;97.59;96981.16;5046825;28;20064;-72
2023/04/29 02:40:21;;;;;;;0.90;0.90;;;;;;;10.74;96.74;96972.53;5061350;28;20038;-72
2023/04/29 02:42:50;;;;;;;0.47;0.47;;;;;;;10.68;96.82;96975.22;5045495;28;20531;-72
2023/04/29 02:45:18;;;;;;;0.95;0.95;;;;;;;10.66;97.30;96978.09;5037642;28;20052;-72
2023/04/29 02:47:45;;;;;;;0.60;0.60;;;;;;;10.66;97.21;96976.25;5038228;28;20049;-72
2023/04/29 02:50:13;;;;;;;0.70;0.70;;;;;;;10.71;97.33;96982.78;5041454;28;20061;-72
2023/04/29 02:52:41;;;;;;;0.63;0.63;;;;;;;10.59;97.09;96978.09;5060510;28;20496;-72
2023/04/29 02:55:12;;;;;;;0.60;0.60;;;;;;;10.56;97.17;96978.53;5056523;28;20589;-72
2023/04/29 02:57:40;;;;;;;0.60;0.60;;;;;;;10.53;97.40;96981.63;5052166;28;20053;-72
2023/04/29 03:00:10;;;;;;;0.60;0.60;;;;;;;10.59;97.34;96985.28;5058317;28;20091;-72
2023/04/29 03:02:38;;;;;;;0.55;0.55;;;;;;;10.76;96.42;96975.81;5049023;28;20041;-72
2023/04/29 03:05:06;;;;;;;0.60;0.60;;;;;;;10.59;97.18;96980.78;5055876;28;20047;-72
2023/04/29 03:07:34;;;;;;;0.57;0.57;;;;;;;10.50;97.88;96979.38;5042302;28;20044;-72
2023/04/29 03:10:02;;;;;;;0.10;0.10;;;;;;;10.58;97.08;96981.81;5038462;28;20404;-72
2023/04/29 03:12:30;;;;;;;0.20;0.20;;;;;;;10.52;97.38;96973.81;5060713;28;20413;-72
2023/04/29 03:14:57;;;;;;;0.52;0.52;;;;;;;10.53;97.39;96976.28;5048498;28;20048;-72
2023/04/29 03:17:26;;;;;;;0.70;0.70;;;;;;;10.52;97.56;96973.81;5035886;28;20136;-72
2023/04/29 03:19:54;;;;;;;0.70;0.70;;;;;;;10.49;97.51;96977.72;5056283;28;20046;-72
2023/04/29 03:22:21;;;;;;;0.60;0.60;;;;;;;10.50;97.65;96973.22;5033111;28;20045;-72
2023/04/29 03:24:49;;;;;;;0.75;0.75;;;;;;;10.50;98.16;96975.88;5035858;28;20128;-72
2023/04/29 03:27:17;;;;;;;0.95;0.95;;;;;;;10.48;97.45;96977.97;5041594;28;20151;-72
2023/04/29 03:29:45;;;;;;;0.50;0.50;;;;;;;10.47;97.16;96976.31;5056857;28;20037;-72
2023/04/29 03:32:13;;;;;;;0.60;0.60;;;;;;;10.43;97.52;96975.09;5042751;28;20123;-72
2023/04/29 03:34:42;;;;;;;0.68;0.68;;;;;;;10.44;97.53;96976.72;5056327;28;20046;-72
2023/04/29 03:37:30;;;;;;;0.90;0.90;;;;;;;10.35;97.15;96976.13;5057859;28;20168;-72
2023/04/29 03:40:11;;;;;;;0.20;0.20;;;;;;;10.37;97.36;96984.75;5040546;28;20511;-72
2023/04/29 03:42:40;;;;;;;0.60;0.60;;;;;;;10.37;97.46;96974.09;5042073;28;20499;-72
2023/04/29 03:45:09;;;;;;;0.50;0.50;;;;;;;10.34;98.34;96979.00;5063464;28;20075;-72
2023/04/29 03:47:37;;;;;;;0.60;0.60;;;;;;;10.35;98.24;96978.78;5042671;28;20045;-72
2023/04/29 03:50:08;;;;;;;0.65;0.65;;;;;;;10.32;97.99;96981.88;5043476;28;20099;-71
2023/04/29 03:52:36;;;;;;;1.02;1.02;;;;;;;10.35;97.70;96962.78;5041104;28;20107;-71
2023/04/29 03:55:10;;;;;;;0.70;0.70;;;;;;;10.47;97.84;96976.31;5052664;28;20045;-72
2023/04/29 03:57:38;;;;;;;0.20;0.20;;;;;;;10.42;97.29;96984.09;5052870;28;20405;-72
2023/04/29 04:00:10;;;;;;;0.70;0.70;;;;;;;10.39;97.02;96982.66;5043889;28;20041;-72
2023/04/29 04:02:43;;;;;;;0.63;0.63;;;;;;;10.39;96.90;96980.00;5058530;28;20041;-72
2023/04/29 04:05:13;;;;;;;0.70;0.70;;;;;;;10.42;96.36;96984.09;5059645;28;20045;-72
2023/04/29 04:07:44;;;;;;;0.50;0.50;;;;;;;10.37;96.36;96991.94;5048016;28;20041;-72
2023/04/29 04:10:35;;;;;;;;;;;;;;;10.36;96.58;96999.13;5033144;28;20052;-72
2023/04/29 04:13:07;;;;;;;0.70;0.70;;;;;;;10.42;96.83;96992.94;5067056;28;19928;-72
2023/04/29 04:15:35;;;;;;;0.60;0.60;;;;;;;10.45;96.79;96989.84;5045528;28;20037;-72
2023/04/29 04:18:03;;;;;;;0.60;0.60;;;;;;;10.41;96.70;96999.28;5057785;28;20104;-72
2023/04/29 04:20:33;;;;;;;0.50;0.50;;;;;;;10.45;96.59;97000.53;5045227;28;20059;-72
2023/04/29 04:23:00;;;;;;;0.63;0.63;;;;;;;10.53;96.64;97004.81;5059323;28;20060;-72
2023/04/29 04:25:30;;;;;;;0.68;0.68;;;;;;;10.54;95.80;96993.94;5048218;28;20048;-72
2023/04/29 04:28:10;;;;;;;0.60;0.60;;;;;;;10.58;95.39;96999.69;5064028;28;20045;-72
2023/04/29 04:30:51;;;;;;;0.22;0.22;;;;;;;10.48;95.46;97002.78;5041118;28;20569;-72
2023/04/29 04:33:19;;;;;;;0.70;0.70;;;;;;;10.48;95.51;96994.78;5056402;28;20083;-72
2023/04/29 04:35:48;;;;;;;0.77;0.77;;;;;;;10.48;95.21;96999.31;5039708;28;20045;-72
2023/04/29 04:38:16;;;;;;;0.55;0.55;;;;;;;10.57;95.04;96998.03;5063227;28;20049;-72
2023/04/29 04:40:44;;;;;;;0.10;0.10;;;;;;;10.44;95.09;97004.22;5037762;28;20441;-72
2023/04/29 04:43:34;;;;;;;0.52;0.52;;;;;;;10.41;95.74;96998.47;5044607;28;20048;-72
2023/04/29 04:46:10;;;;;;;0.57;0.57;;;;;;;10.45;95.68;97010.38;5059207;28;20038;-73
2023/04/29 04:48:41;;;;;;;0.52;0.52;;;;;;;10.45;95.45;97011.19;5032742;28;20515;-72
2023/04/29 04:51:13;;;;;;;0.70;0.70;;;;;;;10.49;95.64;97006.25;5043210;28;20116;-72
2023/04/29 04:53:43;;;;;;;0.70;0.70;;;;;;;10.55;95.62;97010.78;5047475;28;21080;-72
2023/04/29 04:56:18;;;;;;;0.70;0.70;;;;;;;10.58;95.02;97007.69;5049026;28;20045;-72
2023/04/29 04:58:46;;;;;;;0.55;0.55;;;;;;;10.59;94.53;97015.47;5052952;28;20099;-72
2023/04/29 05:01:14;;;;;;;0.63;0.63;;;;;;;10.64;94.50;97013.00;5043481;28;20046;-73
2023/04/29 05:03:42;;;;;;;0.65;0.65;;;;;;;10.66;94.39;97012.78;5049337;28;20126;-72
2023/04/29 05:06:10;;;;;;;0.50;0.50;;;;;;;10.64;93.92;97009.50;5043275;28;20049;-72
2023/04/29 05:08:41;;;;;;;0.55;0.55;;;;;;;10.61;94.00;97018.75;5065431;28;20052;-72
2023/04/29 05:11:16;;;;;;;1.02;1.02;;;;;;;10.64;93.95;97021.00;5044477;28;20037;-72
2023/04/29 05:13:45;;;;;;;0.68;0.68;;;;;;;10.69;93.83;97020.41;5058921;28;20045;-72
2023/04/29 05:16:13;;;;;;;0.60;0.60;;;;;;;10.66;93.86;97018.97;5064198;28;20109;-72
2023/04/29 05:18:45;;;;;;;0.70;0.70;;;;;;;10.71;93.91;97020.97;5056705;28;20041;-72
2023/04/29 05:21:13;;;;;;;0.65;0.65;;;;;;;10.77;93.29;97025.50;5052132;28;20148;-72
2023/04/29 05:23:45;;;;;;;0.52;0.52;;;;;;;10.77;92.82;97030.00;5040118;28;20108;-72
2023/04/29 05:26:13;;;;;;;0.63;0.63;;;;;;;10.75;93.09;97029.41;5058068;28;20049;-72
2023/04/29 05:28:40;;;;;;;0.70;0.70;;;;;;;10.77;92.82;97033.50;5038006;28;20867;-72
2023/04/29 05:31:09;;;;;;;0.40;0.40;;;;;;;10.83;92.37;97034.50;5047762;28;20048;-72
2023/04/29 05:33:37;;;;;;;0.65;0.65;;;;;;;10.81;92.31;97036.56;5059904;28;20041;-72
2023/04/29 05:36:06;;;;;;;0.60;0.60;;;;;;;10.80;92.71;97033.06;5038285;28;20484;-73
2023/04/29 05:38:34;;;;;;;0.57;0.57;;;;;;;10.82;92.54;97032.84;5041849;28;20045;-72
2023/04/29 05:41:05;;;;;;;0.70;0.70;;;;;;;10.87;92.13;97046.41;5035483;28;20081;-72
2023/04/29 05:43:47;;;;;;;0.10;0.10;;;;;;;10.90;91.69;97046.78;5038666;28;20173;-72
2023/04/29 05:46:16;;;;;;;0.65;0.65;;;;;;;10.95;91.62;97040.84;5056159;28;20115;-72
2023/04/29 05:48:43;;;;;;;0.75;0.75;;;;;;;10.97;91.67;97049.47;5038448;28;20049;-72
2023/04/29 05:51:12;;;;;;;0.77;0.77;;;;;;;11.07;90.96;97054.34;5051819;28;20133;-72
2023/04/29 05:53:40;;;;;;;0.50;0.50;;;;;;;11.07;91.04;97054.34;5045246;28;20037;-72
2023/04/29 05:56:09;;;;;;;0.20;0.20;;;;;;;11.14;90.61;97060.47;5055746;28;20522;-72
2023/04/29 05:58:38;;;;;;;0.52;0.52;;;;;;;11.15;90.39;97062.13;5057674;28;20041;-72
2023/04/29 06:01:06;;;;;;;0.77;0.77;;;;;;;11.15;90.61;97075.47;5044273;28;20103;-72
2023/04/29 06:03:34;;;;;;;0.60;0.60;;;;;;;11.21;91.26;97064.75;5039574;28;20049;-72
2023/04/29 06:06:21;;;;;;;0.82;0.82;;;;;;;11.18;92.33;97065.19;5040023;28;20056;-73
2023/04/29 06:09:07;;;;;;;0.50;0.50;;;;;;;11.22;92.20;97066.41;5047205;28;20096;-72
2023/04/29 06:11:52;;;;;;;0.13;0.13;;;;;;;11.21;92.10;97067.44;5045110;28;20404;-72
2023/04/29 06:14:20;;;;;;;0.57;0.57;;;;;;;11.31;91.78;97070.50;5042459;28;20132;-72
2023/04/29 06:16:48;;;;;;;0.70;0.70;;;;;;;11.36;91.32;97067.19;5042222;28;20129;-72
2023/04/29 06:19:16;;;;;;;0.65;0.65;;;;;;;11.44;91.21;97082.13;5060925;28;20558;-72
2023/04/29 06:21:43;;;;;;;0.50;0.50;;;;;;;11.44;92.13;97079.47;5060155;28;20087;-74
2023/04/29 06:24:11;;;;;;;0.93;0.93;;;;;;;11.42;91.66;97081.56;5046865;28;20408;-72
2023/04/29 06:26:39;;;;;;;0.70;0.70;;;;;;;11.54;91.26;97075.31;5038336;28;20262;-72
2023/04/29 06:29:08;;;;;;;0.63;0.63;;;;;;;11.55;90.88;97084.16;5042199;28;20041;-72
2023/04/29 06:31:37;;;;;;;0.63;0.63;;;;;;;11.62;90.68;97088.44;5042088;28;20044;-71
2023/04/29 06:34:05;;;;;;;0.68;0.68;;;;;;;11.57;90.32;97090.94;5054255;28;20505;-71
2023/04/29 06:36:37;;;;;;;0.57;0.57;;;;;;;11.51;90.46;97094.47;5038712;28;20060;-72
2023/04/29 06:39:17;;;;;;;0.63;0.63;;;;;;;11.65;89.82;97092.53;5035083;28;20056;-72
2023/04/29 06:42:17;;;;;;;0.60;0.60;;;;;;;11.61;89.74;97099.34;5040865;28;20132;-72
2023/04/29 06:45:12;;;;;;;0.63;0.63;;;;;;;11.59;89.77;97098.72;5049758;28;20049;-71
2023/04/29 06:47:46;;;;;;;0.60;0.60;;;;;;;11.61;89.68;97116.22;5057437;28;20049;-72
2023/04/29 06:50:24;;;;;;;0.63;0.63;;;;;;;11.58;90.10;97113.13;5048150;28;20045;-72
2023/04/29 06:52:53;;;;;;;0.57;0.57;;;;;;;11.57;90.44;97101.63;5053341;28;20041;-72
2023/04/29 06:55:20;;;;;;;0.65;0.65;;;;;;;11.61;90.79;97107.38;5048153;28;20401;-72
2023/04/29 06:57:48;;;;;;;0.43;0.43;;;;;;;11.63;91.02;97115.97;5041579;28;20056;-72
2023/04/29 07:00:19;;;;;;;0.55;0.55;;;;;;;11.68;91.13;97106.28;5040570;28;20095;-72
2023/04/29 07:02:47;;;;;;;0.40;0.40;;;;;;;11.71;91.36;97110.41;5043779;28;20033;-72
2023/04/29 07:05:15;;;;;;;1.15;1.15;;;;;;;11.74;91.57;97123.31;5064661;28;20088;-72
2023/04/29 07:07:43;;;;;;;0.70;0.70;;;;;;;11.75;91.73;97120.47;5049685;28;20045;-72
2023/04/29 07:10:10;;;;;;;0.68;0.68;;;;;;;11.80;91.78;97119.84;5039278;28;20095;-72
2023/04/29 07:12:38;;;;;;;0.60;0.60;;;;;;;11.84;91.82;97123.72;5046015;28;20037;-73
2023/04/29 07:15:06;;;;;;;0.60;0.60;;;;;;;11.91;92.13;97129.03;5047353;28;20098;-73
2023/04/29 07:17:35;;;;;;;0.70;0.70;;;;;;;11.93;92.06;97127.78;5062523;28;20053;-72
2023/04/29 07:20:04;;;;;;;0.77;0.77;;;;;;;11.98;92.01;97129.81;5058399;28;20546;-72
2023/04/29 07:22:31;;;;;;;0.63;0.63;;;;;;;12.03;91.93;97125.47;5057426;28;20034;-72
2023/04/29 07:24:59;;;;;;;0.60;0.60;;;;;;;12.05;91.90;97131.41;5052537;28;20451;-72
2023/04/29 07:27:27;;;;;;;0.60;0.60;;;;;;;12.03;91.87;97140.69;5050804;28;20045;-72
2023/04/29 07:29:55;;;;;;;0.98;0.98;;;;;;;12.00;91.25;97139.25;5055713;28;20525;-73
2023/04/29 07:32:23;;;;;;;0.98;0.98;;;;;;;11.96;91.87;97147.91;5041422;28;20120;-72
2023/04/29 07:34:52;;;;;;;0.47;0.47;;;;;;;11.85;92.70;97151.28;5060005;28;20049;-72
2023/04/29 07:37:21;;;;;;;0.60;0.60;;;;;;;11.89;92.90;97149.81;5060165;28;20049;-72
2023/04/29 07:39:48;;;;;;;0.45;0.45;;;;;;;11.88;92.70;97159.69;5054753;28;20038;-72
2023/04/29 07:42:16;;;;;;;0.57;0.57;;;;;;;11.87;92.46;97150.03;5060467;28;20048;-72
2023/04/29 07:44:44;;;;;;;0.50;0.50;;;;;;;11.69;92.71;97155.22;5042942;28;20053;-72
2023/04/29 07:47:12;;;;;;;0.52;0.52;;;;;;;11.62;92.83;97159.81;5040226;28;20072;-72
2023/04/29 07:49:40;;;;;;;0.73;0.73;;;;;;;11.69;93.05;97157.91;5032691;28;20052;-72
2023/04/29 07:52:09;;;;;;;0.60;0.60;;;;;;;11.73;92.10;97159.13;5053946;28;20092;-72
2023/04/29 07:54:37;;;;;;;0.50;0.50;;;;;;;11.88;91.67;97164.22;5036160;28;20052;-72
2023/04/29 07:57:04;;;;;;;0.60;0.60;;;;;;;12.06;90.71;97165.16;5033330;28;20107;-72
2023/04/29 07:59:32;;;;;;;0.55;0.55;;;;;;;12.21;91.09;97172.88;5066513;28;20057;-72
2023/04/29 08:02:02;;;;;;;0.55;0.55;;;;;;;12.32;89.96;97168.72;5066811;28;20033;-72
2023/04/29 08:04:29;;;;;;;0.50;0.50;;;;;;;12.41;88.55;97172.75;5046390;28;20037;-73
2023/04/29 08:07:03;;;;;;;0.38;0.38;;;;;;;12.47;86.93;97175.38;5068875;22;20045;-69
2023/04/29 08:09:32;;;;;;;0.52;0.52;;;;;;;12.28;86.81;97172.84;5043643;28;20056;-69
2023/04/29 08:12:00;;;;;;;0.55;0.55;;;;;;;12.24;88.04;97185.84;5043125;28;20250;-69
2023/04/29 08:14:28;;;;;;;0.88;0.88;;;;;;;12.28;88.16;97178.19;5041639;28;20045;-69
2023/04/29 08:16:56;;;;;;;0.73;0.73;;;;;;;12.25;89.21;97190.13;5043385;28;20500;-69
2023/04/29 08:19:23;;;;;;;0.52;0.52;;;;;;;12.27;88.37;97181.91;5038561;28;20550;-69
2023/04/29 08:21:51;;;;;;;0.60;0.60;;;;;;;12.20;87.77;97191.84;5052934;28;20045;-70
2023/04/29 08:24:19;;;;;;;0.55;0.55;;;;;;;12.34;87.34;97194.22;5040249;28;20099;-70
2023/04/29 08:26:48;;;;;;;0.68;0.68;;;;;;;12.39;87.36;97194.38;5045141;28;20384;-70
2023/04/29 08:29:16;;;;;;;0.60;0.60;;;;;;;12.35;86.55;97200.41;5038050;28;20558;-69
2023/04/29 08:31:43;;;;;;;0.50;0.50;;;;;;;12.50;87.04;97190.19;5035870;28;20041;-70
2023/04/29 08:34:11;;;;;;;0.55;0.55;;;;;;;12.48;87.61;97195.75;5039527;28;20037;-69
2023/04/29 08:36:39;;;;;;;0.57;0.57;;;;;;;12.62;87.56;97203.72;5041001;28;20091;-69
2023/04/29 08:39:06;;;;;;;0.50;0.50;;;;;;;12.62;87.62;97207.22;5040074;28;20041;-69
2023/04/29 08:41:34;;;;;;;0.68;0.68;;;;;;;12.58;86.50;97205.16;5044157;28;20107;-69
2023/04/29 08:44:03;;;;;;;0.40;0.40;;;;;;;12.63;85.75;97208.84;5043031;28;20470;-69
2023/04/29 08:46:31;;;;;;;0.52;0.52;;;;;;;12.42;86.04;97211.88;5035476;28;20045;-69
2023/04/29 08:48:59;;;;;;;0.47;0.47;;;;;;;12.41;86.87;97212.91;5043913;28;20049;-69
2023/04/29 08:51:27;;;;;;;0.65;0.65;;;;;;;12.52;86.87;97224.78;5034679;28;20050;-69
2023/04/29 08:53:56;;;;;;;0.10;0.10;;;;;;;12.54;86.67;97222.72;5046369;28;20448;-69
2023/04/29 08:56:23;;;;;;;0.60;0.60;;;;;;;12.50;85.27;97225.00;5040448;28;20091;-69
2023/04/29 08:58:56;;;;;;;0.60;0.60;;;;;;;12.39;86.10;97223.81;5041879;28;20217;-69
2023/04/29 09:01:28;;;;;;;0.47;0.47;;;;;;;12.38;85.32;97235.56;5043447;28;20045;-69
2023/04/29 09:04:02;;;;;;;0.10;0.10;;;;;;;12.49;85.42;97232.19;5040189;28;20447;-69
2023/04/29 09:06:31;;;;;;;0.43;0.43;;;;;;;12.46;84.48;97231.81;5046325;28;20056;-69
2023/04/29 09:08:59;;;;;;;0.47;0.47;;;;;;;12.36;84.76;97242.16;5041927;28;20507;-70
2023/04/29 09:11:27;;;;;;;0.60;0.60;;;;;;;12.15;86.68;97251.31;5043651;28;20053;-69
2023/04/29 09:13:59;;;;;;;0.10;0.10;;;;;;;12.01;86.41;97247.06;5041986;28;20456;-69
2023/04/29 09:16:28;;;;;;;0.60;0.60;;;;;;;11.79;87.67;97253.75;5043114;28;20508;-69
2023/04/29 09:18:56;;;;;;;0.60;0.60;;;;;;;11.85;88.83;97253.72;5046561;28;20054;-68
2023/04/29 09:21:25;;;;;;;0.57;0.57;;;;;;;11.79;87.42;97259.91;5037899;28;20053;-67
2023/04/29 09:23:55;;;;;;;0.30;0.30;;;;;;;11.75;86.89;97256.81;5045855;28;20623;-69
2023/04/29 09:26:23;;;;;;;0.57;0.57;;;;;;;11.77;85.70;97267.31;5040608;28;20107;-70
2023/04/29 09:29:06;;;;;;;0.57;0.57;;;;;;;11.78;85.65;97268.97;5042530;28;20040;-69
2023/04/29 09:31:37;;;;;;;0.68;0.68;;;;;;;11.76;85.68;97265.66;5038461;28;20028;-70
2023/04/29 09:34:05;;;;;;;0.40;0.40;;;;;;;11.89;84.27;97271.00;5049088;28;20124;-70
2023/04/29 09:36:37;;;;;;;0.68;0.68;;;;;;;11.89;85.14;97271.00;5043024;28;20087;-69
2023/04/29 09:39:10;;;;;;;0.10;0.10;;;;;;;11.83;83.86;97277.19;5044612;28;20468;-70
2023/04/29 09:41:59;;;;;;;0.13;0.13;;;;;;;11.95;84.32;97286.19;5040548;28;20447;-69
2023/04/29 09:44:27;;;;;;;0.63;0.63;;;;;;;11.94;84.22;97281.84;5049418;28;20046;-70
2023/04/29 09:47:02;;;;;;;0.47;0.47;;;;;;;11.93;84.10;97288.25;5044739;28;20511;-70
2023/04/29 09:49:34;;;;;;;0.55;0.55;;;;;;;11.85;83.70;97296.50;5048547;28;20091;-69
2023/04/29 09:52:03;;;;;;;0.10;0.10;;;;;;;11.82;83.65;97296.94;5040806;28;20458;-69
2023/04/29 09:54:32;;;;;;;0.70;0.70;;;;;;;11.88;83.42;97300.59;5045856;28;20042;-69
2023/04/29 09:57:01;;;;;;;0.50;0.50;;;;;;;11.71;83.87;97300.22;5043477;28;20049;-69
2023/04/29 09:59:28;;;;;;;0.52;0.52;;;;;;;11.85;84.26;97303.69;5042588;28;20049;-69
2023/04/29 10:01:58;;;;;;;0.52;0.52;;;;;;;11.87;84.28;97299.78;5049962;28;20041;-69
2023/04/29 10:04:28;;;;;;;0.57;0.57;;;;;;;12.14;82.90;97295.19;5052882;28;20041;-69
2023/04/29 10:06:56;;;;;;;0.75;0.75;;;;;;;12.17;83.50;97302.78;5049309;28;20055;-69
2023/04/29 10:09:24;;;;;;;0.52;0.52;;;;;;;12.09;82.58;97306.50;5047263;28;20099;-69
2023/04/29 10:11:52;;;;;;;0.63;0.63;;;;;;;12.26;81.43;97300.66;5044661;28;20048;-70
2023/04/29 10:14:21;;;;;;;0.65;0.65;;;;;;;12.21;81.17;97305.84;5049056;28;20064;-69
2023/04/29 10:16:51;;;;;;;0.73;0.73;;;;;;;12.19;81.10;97305.25;5048860;28;20388;-69
2023/04/29 10:19:25;;;;;;;0.57;0.57;;;;;;;12.25;80.35;97304.41;5047523;28;20068;-69
2023/04/29 10:21:56;;;;;;;0.60;0.60;;;;;;;12.30;80.66;97302.72;5042260;28;20042;-70
2023/04/29 10:24:25;;;;;;;0.75;0.75;;;;;;;12.16;80.01;97305.66;5041410;28;20099;-70
2023/04/29 10:26:55;;;;;;;0.50;0.50;;;;;;;12.18;80.69;97308.94;5047180;28;20099;-70
2023/04/29 10:29:22;;;;;;;0.55;0.55;;;;;;;12.18;80.26;97307.09;5042461;28;20060;-70
2023/04/29 10:31:51;;;;;;;0.60;0.60;;;;;;;12.29;81.65;97305.59;5036491;28;20037;-69
2023/04/29 10:34:19;;;;;;;0.50;0.50;;;;;;;12.27;80.34;97313.03;5046737;28;20125;-69
2023/04/29 10:36:47;;;;;;;0.70;0.70;;;;;;;12.41;80.27;97311.94;5040824;28;20511;-69
2023/04/29 10:39:23;;;;;;;0.55;0.55;;;;;;;12.43;79.80;97304.53;5042966;28;20049;-69
2023/04/29 10:41:50;;;;;;;0.70;0.70;;;;;;;12.27;79.98;97305.81;5043290;28;20098;-69
2023/04/29 10:44:18;;;;;;;0.60;0.60;;;;;;;12.37;79.70;97308.84;5046996;28;20041;-69
2023/04/29 10:46:46;;;;;;;0.10;0.10;;;;;;;12.44;78.92;97304.31;5044227;28;20467;-69
2023/04/29 10:49:13;;;;;;;0.60;0.60;;;;;;;12.58;78.15;97299.69;5044905;28;20041;-69
2023/04/29 10:51:43;;;;;;;1.05;1.05;;;;;;;12.83;77.27;97315.84;5037677;28;20064;-69
2023/04/29 10:54:13;;;;;;;0.70;0.70;;;;;;;13.04;75.91;97307.44;5044253;28;20067;-69
2023/04/29 10:56:44;;;;;;;0.52;0.52;;;;;;;13.13;76.04;97305.31;5034258;28;20092;-69
2023/04/29 10:59:13;;;;;;;0.47;0.47;;;;;;;13.26;75.79;97310.63;5044342;28;20095;-69
2023/04/29 11:01:46;;;;;;;0.40;0.40;;;;;;;13.46;77.01;97305.09;5045661;28;20555;-69
2023/04/29 11:04:14;;;;;;;0.60;0.60;;;;;;;13.48;74.74;97306.50;5046782;28;20083;-69
2023/04/29 11:06:44;;;;;;;0.57;0.57;;;;;;;13.50;74.92;97303.59;5041828;28;20085;-69
2023/04/29 11:09:14;;;;;;;0.80;0.80;;;;;;;13.38;73.80;97316.09;5047298;28;20115;-68
2023/04/29 11:11:44;;;;;;;0.57;0.57;;;;;;;13.32;74.19;97315.09;5039364;28;20086;-69
2023/04/29 11:14:13;;;;;;;0.40;0.40;;;;;;;13.42;72.87;97307.38;5043113;28;20381;-69
2023/04/29 11:16:48;;;;;;;0.50;0.50;;;;;;;13.45;71.62;97316.84;5054016;28;20434;-69
2023/04/29 11:19:16;;;;;;;0.80;0.80;;;;;;;13.62;71.41;97311.72;5044062;28;20132;-69
2023/04/29 11:21:45;;;;;;;0.70;0.70;;;;;;;13.62;71.37;97317.09;5041071;28;20179;-69
2023/04/29 11:24:15;;;;;;;0.55;0.55;;;;;;;13.62;71.14;97317.09;5039808;28;20045;-69
2023/04/29 11:26:45;;;;;;;0.30;0.30;;;;;;;13.65;70.61;97322.84;5040368;28;20450;-69
2023/04/29 11:29:12;;;;;;;0.80;0.80;;;;;;;13.70;70.63;97328.38;5047233;28;20042;-69
2023/04/29 11:31:40;;;;;;;0.57;0.57;;;;;;;13.64;70.63;97329.25;5036017;28;20046;-69
2023/04/29 11:34:07;;;;;;;0.60;0.60;;;;;;;13.75;70.46;97325.03;5044764;28;20072;-69
2023/04/29 11:36:36;;;;;;;0.50;0.50;;;;;;;13.85;69.28;97333.38;5034452;28;20067;-69
2023/04/29 11:39:04;;;;;;;0.75;0.75;;;;;;;13.83;68.91;97328.22;5037510;28;20053;-69
2023/04/29 11:41:31;;;;;;;0.50;0.50;;;;;;;13.95;69.09;97339.88;5038425;28;20049;-69
2023/04/29 11:44:02;;;;;;;0.50;0.50;;;;;;;14.01;69.40;97340.88;5042080;28;20045;-69
2023/04/29 11:46:31;;;;;;;0.60;0.60;;;;;;;14.03;69.19;97348.66;5043780;28;20037;-69
2023/04/29 11:48:59;;;;;;;0.85;0.85;;;;;;;13.99;69.02;97345.63;5040423;28;20075;-69